createdAt,value
2017-09-25T00:00:46.106Z,14.30
2017-09-25T00:03:13.023Z,14.30
2017-09-25T00:05:39.939Z,14.20
2017-09-25T00:08:06.090Z,14.20
2017-09-25T00:10:33.453Z,14.20
2017-09-25T00:12:59.654Z,14.20
2017-09-25T00:15:28.697Z,14.20
2017-09-25T00:17:55.590Z,14.20
2017-09-25T00:20:21.840Z,14.20
2017-09-25T00:22:48.036Z,14.20
2017-09-25T00:25:14.664Z,14.20
2017-09-25T00:27:40.872Z,14.20
2017-09-25T00:30:07.865Z,14.20
2017-09-25T00:32:34.317Z,14.20
2017-09-25T00:35:00.542Z,14.20
2017-09-25T00:37:26.738Z,14.20
2017-09-25T00:39:54.783Z,14.20
2017-09-25T00:42:21.739Z,14.20
2017-09-25T00:44:48.007Z,14.20
2017-09-25T00:47:14.227Z,14.20
2017-09-25T00:49:40.427Z,14.30
2017-09-25T00:52:07.333Z,14.30
2017-09-25T00:54:33.578Z,14.20
2017-09-25T00:57:00.500Z,14.20
2017-09-25T00:59:28.294Z,14.20
2017-09-25T01:02:09.916Z,14.20
2017-09-25T01:04:48.822Z,14.10
2017-09-25T01:07:14.995Z,14.10
2017-09-25T01:09:41.157Z,14.10
2017-09-25T01:12:09.080Z,14.00
2017-09-25T01:14:35.287Z,14.00
2017-09-25T01:17:01.461Z,14.00
2017-09-25T01:19:27.660Z,14.00
2017-09-25T01:21:54.076Z,13.90
2017-09-25T01:24:20.494Z,13.90
2017-09-25T01:26:46.694Z,13.90
2017-09-25T01:29:14.396Z,13.70
2017-09-25T01:31:40.606Z,13.70
2017-09-25T01:34:07.503Z,13.70
2017-09-25T01:36:33.666Z,13.60
2017-09-25T01:38:59.893Z,13.60
2017-09-25T01:41:27.567Z,13.60
2017-09-25T01:43:55.521Z,13.50
2017-09-25T01:46:21.675Z,13.50
2017-09-25T01:48:49.399Z,13.50
2017-09-25T01:51:15.604Z,13.50
2017-09-25T01:53:41.798Z,13.50
2017-09-25T01:56:08.700Z,13.50
2017-09-25T01:58:36.263Z,13.40
2017-09-25T02:01:02.628Z,13.40
2017-09-25T02:03:29.920Z,13.30
2017-09-25T02:05:56.133Z,13.30
2017-09-25T02:08:22.289Z,13.30
2017-09-25T02:10:48.494Z,13.30
2017-09-25T02:13:15.338Z,13.30
2017-09-25T02:15:41.532Z,13.30
2017-09-25T02:18:07.682Z,13.20
2017-09-25T02:20:33.859Z,13.20
2017-09-25T02:23:00.062Z,16.00
2017-09-25T02:25:27.343Z,13.20
2017-09-25T02:27:54.325Z,13.20
2017-09-25T02:30:21.264Z,13.20
2017-09-25T02:32:48.169Z,13.20
2017-09-25T02:35:14.335Z,13.20
2017-09-25T02:37:41.254Z,13.30
2017-09-25T02:40:07.407Z,13.30
2017-09-25T02:42:34.332Z,13.30
2017-09-25T02:45:01.329Z,13.30
2017-09-25T02:47:27.507Z,13.30
2017-09-25T02:49:53.668Z,13.20
2017-09-25T02:52:20.607Z,13.20
2017-09-25T02:54:47.532Z,13.10
2017-09-25T02:57:13.696Z,13.00
2017-09-25T02:59:40.201Z,13.10
2017-09-25T03:02:06.406Z,13.10
2017-09-25T03:04:32.583Z,13.10
2017-09-25T03:06:58.752Z,13.10
2017-09-25T03:09:24.951Z,13.00
2017-09-25T03:11:51.159Z,12.90
2017-09-25T03:14:18.409Z,12.90
2017-09-25T03:16:45.329Z,12.80
2017-09-25T03:19:11.502Z,12.80
2017-09-25T03:21:37.674Z,12.80
2017-09-25T03:24:03.841Z,12.80
2017-09-25T03:26:31.044Z,12.80
2017-09-25T03:28:57.234Z,12.80
2017-09-25T03:31:24.158Z,12.70
2017-09-25T03:33:51.143Z,12.80
2017-09-25T03:36:17.329Z,12.80
2017-09-25T03:38:44.263Z,12.80
2017-09-25T03:41:11.941Z,12.70
2017-09-25T03:43:38.844Z,12.70
2017-09-25T03:46:04.990Z,12.70
2017-09-25T03:48:31.154Z,12.70
2017-09-25T03:50:58.101Z,12.70
2017-09-25T03:53:25.074Z,12.70
2017-09-25T03:55:51.281Z,12.80
2017-09-25T03:58:17.443Z,12.70
2017-09-25T04:00:43.595Z,12.70
2017-09-25T04:03:09.835Z,12.60
2017-09-25T04:05:36.240Z,12.50
2017-09-25T04:08:02.484Z,12.60
2017-09-25T04:10:28.682Z,12.60
2017-09-25T04:12:54.876Z,12.60
2017-09-25T04:15:21.081Z,12.50
2017-09-25T04:17:48.766Z,12.50
2017-09-25T04:20:16.107Z,12.50
2017-09-25T04:22:43.034Z,12.50
2017-09-25T04:25:09.255Z,12.30
2017-09-25T04:27:35.475Z,12.40
2017-09-25T04:30:01.643Z,12.30
2017-09-25T04:32:28.578Z,12.30
2017-09-25T04:34:55.538Z,12.10
2017-09-25T04:37:22.448Z,12.10
2017-09-25T04:39:48.630Z,12.10
2017-09-25T04:42:15.642Z,12.20
2017-09-25T04:44:41.859Z,12.30
2017-09-25T04:47:09.570Z,12.40
2017-09-25T04:49:35.778Z,12.40
2017-09-25T04:52:02.686Z,12.40
2017-09-25T04:54:28.896Z,12.40
2017-09-25T04:56:55.055Z,12.30
2017-09-25T04:59:21.244Z,12.20
2017-09-25T05:01:47.427Z,12.30
2017-09-25T05:04:14.386Z,12.70
2017-09-25T05:06:41.319Z,12.80
2017-09-25T05:09:08.222Z,12.80
2017-09-25T05:11:34.391Z,12.90
2017-09-25T05:14:00.613Z,13.10
2017-09-25T05:16:27.642Z,13.10
2017-09-25T05:18:53.830Z,13.00
2017-09-25T05:21:20.007Z,12.90
2017-09-25T05:23:47.739Z,12.70
2017-09-25T05:26:13.969Z,12.70
2017-09-25T05:28:40.167Z,12.70
2017-09-25T05:31:06.336Z,12.70
2017-09-25T05:33:32.559Z,12.60
2017-09-25T05:35:58.723Z,12.50
2017-09-25T05:38:25.641Z,12.40
2017-09-25T05:40:51.855Z,12.30
2017-09-25T05:43:18.059Z,12.30
2017-09-25T05:45:44.541Z,12.30
2017-09-25T05:48:10.798Z,12.40
2017-09-25T05:50:37.744Z,12.40
2017-09-25T05:53:04.674Z,12.40
2017-09-25T05:55:34.305Z,12.40
2017-09-25T05:58:01.240Z,12.60
2017-09-25T06:00:27.423Z,12.60
2017-09-25T06:02:53.601Z,12.80
2017-09-25T06:05:20.576Z,13.00
2017-09-25T06:07:46.733Z,13.10
2017-09-25T06:10:12.911Z,13.20
2017-09-25T06:12:39.852Z,13.30
2017-09-25T06:15:06.787Z,13.40
2017-09-25T06:17:33.684Z,13.60
2017-09-25T06:19:59.852Z,13.60
2017-09-25T06:22:26.062Z,13.60
2017-09-25T06:24:52.215Z,13.70
2017-09-25T06:27:18.434Z,13.70
2017-09-25T06:29:44.606Z,13.80
2017-09-25T06:32:10.843Z,13.90
2017-09-25T06:34:37.015Z,14.00
2017-09-25T06:37:03.976Z,14.10
2017-09-25T06:39:30.924Z,14.20
2017-09-25T06:41:57.143Z,14.20
2017-09-25T06:44:23.329Z,14.30
2017-09-25T06:46:49.496Z,14.40
2017-09-25T06:49:16.574Z,14.50
2017-09-25T06:51:43.627Z,14.60
2017-09-25T06:54:10.658Z,14.80
2017-09-25T06:56:37.809Z,15.00
2017-09-25T06:59:04.748Z,15.20
2017-09-25T07:01:31.778Z,15.60
2017-09-25T07:03:58.191Z,15.80
2017-09-25T07:06:24.536Z,16.50
2017-09-25T07:08:50.852Z,17.00
2017-09-25T07:11:17.267Z,17.00
2017-09-25T07:13:43.513Z,17.50
2017-09-25T07:16:09.827Z,17.70
2017-09-25T07:18:36.085Z,18.00
2017-09-25T07:21:02.398Z,18.00
2017-09-25T07:23:28.654Z,18.30
2017-09-25T07:25:54.925Z,19.10
2017-09-25T07:28:21.212Z,19.20
2017-09-25T07:30:49.235Z,19.90
2017-09-25T07:33:15.476Z,19.90
2017-09-25T07:35:42.152Z,20.60
2017-09-25T07:38:08.403Z,20.90
2017-09-25T07:40:34.605Z,21.30
2017-09-25T07:43:00.794Z,21.40
2017-09-25T07:45:27.060Z,21.40
2017-09-25T07:47:53.339Z,21.70
2017-09-25T07:50:20.327Z,21.80
2017-09-25T07:52:46.644Z,22.10
2017-09-25T07:55:13.031Z,22.30
2017-09-25T07:57:39.225Z,22.40
2017-09-25T08:00:06.282Z,22.50
2017-09-25T08:02:32.503Z,22.70
2017-09-25T08:04:58.776Z,22.70
2017-09-25T08:07:25.738Z,22.80
2017-09-25T08:09:52.017Z,22.90
2017-09-25T08:12:18.294Z,23.10
2017-09-25T08:14:45.312Z,23.20
2017-09-25T08:17:11.531Z,23.30
2017-09-25T08:19:37.811Z,23.60
2017-09-25T08:22:04.094Z,23.30
2017-09-25T08:24:30.356Z,23.30
2017-09-25T08:26:57.336Z,23.00
2017-09-25T08:29:23.526Z,23.00
2017-09-25T08:31:50.588Z,22.60
2017-09-25T08:34:17.533Z,22.40
2017-09-25T08:36:43.756Z,22.40
2017-09-25T08:39:10.753Z,22.20
2017-09-25T08:41:36.978Z,22.30
2017-09-25T08:44:03.232Z,22.30
2017-09-25T08:46:29.434Z,22.70
2017-09-25T08:48:55.731Z,22.80
2017-09-25T08:51:21.943Z,22.80
2017-09-25T08:53:48.872Z,22.30
2017-09-25T08:56:15.119Z,22.30
2017-09-25T08:58:42.134Z,22.60
2017-09-25T09:01:08.318Z,22.80
2017-09-25T09:03:34.563Z,22.80
2017-09-25T09:06:01.747Z,23.00
2017-09-25T09:08:40.370Z,22.80
2017-09-25T09:11:06.583Z,23.00
2017-09-25T09:13:32.852Z,23.00
2017-09-25T09:15:59.840Z,23.30
2017-09-25T09:18:26.106Z,23.30
2017-09-25T09:20:52.387Z,23.30
2017-09-25T09:23:18.614Z,23.30
2017-09-25T09:25:44.800Z,23.70
2017-09-25T09:28:11.072Z,23.90
2017-09-25T09:30:37.276Z,23.90
2017-09-25T09:33:04.242Z,23.80
2017-09-25T09:35:30.584Z,23.70
2017-09-25T09:37:56.950Z,24.10
2017-09-25T09:40:23.239Z,24.10
2017-09-25T09:42:49.459Z,24.20
2017-09-25T09:45:15.658Z,24.00
2017-09-25T09:47:41.927Z,24.10
2017-09-25T09:50:08.290Z,24.20
2017-09-25T09:52:34.537Z,24.20
2017-09-25T09:55:00.786Z,24.30
2017-09-25T10:00:16.220Z,24.40
2017-09-25T10:02:42.428Z,24.20
2017-09-25T10:05:09.363Z,24.50
2017-09-25T10:07:36.335Z,24.50
2017-09-25T10:10:02.600Z,24.60
2017-09-25T10:12:28.808Z,24.60
2017-09-25T10:14:55.004Z,24.80
2017-09-25T10:17:21.973Z,24.80
2017-09-25T10:19:48.185Z,24.80
2017-09-25T10:22:15.186Z,24.90
2017-09-25T10:24:41.385Z,24.90
2017-09-25T10:27:08.727Z,24.90
2017-09-25T10:29:34.942Z,25.20
2017-09-25T10:32:01.868Z,25.30
2017-09-25T10:34:28.833Z,25.30
2017-09-25T10:36:55.815Z,25.60
2017-09-25T10:39:21.973Z,25.60
2017-09-25T10:41:48.168Z,25.80
2017-09-25T10:44:14.385Z,25.90
2017-09-25T10:46:40.608Z,26.10
2017-09-25T10:49:06.896Z,25.70
2017-09-25T10:51:33.169Z,25.60
2017-09-25T10:53:59.375Z,24.60
2017-09-25T10:56:26.375Z,25.60
2017-09-25T10:58:52.984Z,25.60
2017-09-25T11:01:19.872Z,25.60
2017-09-25T11:03:46.097Z,25.80
2017-09-25T11:06:13.804Z,25.50
2017-09-25T11:08:40.775Z,24.80
2017-09-25T11:11:06.983Z,24.80
2017-09-25T11:13:33.931Z,25.90
2017-09-25T11:16:00.151Z,25.80
2017-09-25T11:18:27.175Z,26.40
2017-09-25T11:20:53.441Z,26.50
2017-09-25T11:23:19.650Z,26.50
2017-09-25T11:25:48.173Z,26.50
2017-09-25T11:37:59.425Z,27.30
2017-09-25T11:40:25.605Z,27.00
2017-09-25T11:42:51.819Z,27.00
2017-09-25T11:45:19.956Z,27.20
2017-09-25T11:47:46.163Z,27.40
2017-09-25T11:50:12.387Z,26.60
2017-09-25T12:02:23.622Z,27.20
2017-09-25T12:04:50.539Z,27.10
2017-09-25T12:07:17.093Z,27.10
2017-09-25T12:09:44.133Z,26.00
2017-09-25T12:12:10.344Z,25.50
2017-09-25T12:14:39.048Z,25.70
2017-09-25T12:17:05.227Z,27.10
2017-09-25T12:19:31.547Z,27.10
2017-09-25T12:21:57.822Z,26.20
2017-09-25T12:24:24.004Z,25.50
2017-09-25T12:26:50.294Z,25.70
2017-09-25T12:29:16.542Z,25.90
2017-09-25T12:31:43.796Z,24.40
2017-09-25T12:34:10.800Z,23.80
2017-09-25T12:36:37.012Z,22.20
2017-09-25T12:39:03.414Z,23.00
2017-09-25T12:41:31.204Z,22.80
2017-09-25T12:43:57.446Z,22.90
2017-09-25T12:46:23.655Z,22.70
2017-09-25T12:48:49.872Z,22.40
2017-09-25T12:51:16.037Z,22.40
2017-09-25T12:53:42.309Z,22.10
2017-09-25T12:56:09.412Z,22.00
2017-09-25T12:58:35.625Z,22.10
2017-09-25T13:01:04.465Z,22.00
2017-09-25T13:03:30.683Z,22.00
2017-09-25T13:05:57.620Z,21.90
2017-09-25T13:08:23.834Z,21.80
2017-09-25T13:10:50.034Z,21.80
2017-09-25T13:13:16.265Z,21.80
2017-09-25T13:15:42.482Z,21.60
2017-09-25T13:18:10.944Z,21.60
2017-09-25T13:20:37.970Z,21.50
2017-09-25T13:23:04.220Z,21.30
2017-09-25T13:25:30.437Z,21.30
2017-09-25T13:27:56.669Z,21.30
2017-09-25T13:30:22.904Z,21.30
2017-09-25T13:32:49.112Z,21.40
2017-09-25T13:35:30.880Z,21.30
2017-09-25T13:37:57.230Z,21.30
2017-09-25T13:40:27.114Z,21.30
2017-09-25T13:42:53.363Z,21.40
2017-09-25T13:45:20.027Z,21.40
2017-09-25T13:47:46.243Z,21.30
2017-09-25T13:50:12.437Z,21.30
2017-09-25T13:52:38.644Z,21.30
2017-09-25T14:06:29.216Z,21.70
2017-09-25T14:08:56.178Z,21.70
2017-09-25T14:11:23.209Z,21.80
2017-09-25T14:13:50.163Z,21.90
2017-09-25T14:16:17.108Z,22.00
2017-09-25T14:18:44.126Z,22.20
2017-09-25T14:21:10.355Z,22.20
2017-09-25T14:23:36.588Z,22.00
2017-09-25T14:26:03.715Z,21.80
2017-09-25T14:28:29.976Z,21.70
2017-09-25T14:30:56.227Z,21.60
2017-09-25T14:33:23.222Z,21.10
2017-09-25T14:35:49.463Z,21.00
2017-09-25T14:38:15.774Z,21.00
2017-09-25T14:40:42.034Z,21.00
2017-09-25T14:43:08.314Z,21.00
2017-09-25T14:45:35.363Z,20.90
2017-09-25T14:48:02.670Z,20.90
2017-09-25T14:50:28.925Z,20.80
2017-09-25T14:52:55.931Z,20.80
2017-09-25T15:05:07.603Z,20.30
2017-09-25T15:07:33.883Z,20.20
2017-09-25T15:10:00.075Z,20.20
2017-09-25T15:12:27.805Z,20.10
2017-09-25T15:14:54.056Z,20.10
2017-09-25T15:17:20.280Z,20.00
2017-09-25T15:19:46.456Z,19.90
2017-09-25T15:22:12.653Z,19.90
2017-09-25T15:24:39.620Z,19.80
2017-09-25T15:27:06.637Z,19.70
2017-09-25T15:29:32.805Z,19.70
2017-09-25T15:31:58.995Z,19.70
2017-09-25T15:34:25.207Z,19.60
2017-09-25T15:36:51.400Z,19.60
2017-09-25T15:39:17.616Z,19.60
2017-09-25T15:41:43.878Z,19.60
2017-09-25T15:44:10.081Z,19.60
2017-09-25T15:46:36.287Z,19.60
2017-09-25T15:49:02.505Z,19.60
2017-09-25T15:51:29.415Z,19.50
2017-09-25T15:53:55.601Z,19.50
2017-09-25T15:56:21.815Z,19.50
2017-09-25T15:58:48.702Z,19.50
2017-09-25T16:01:14.993Z,19.50
2017-09-25T16:03:42.452Z,19.40
2017-09-25T16:06:09.703Z,19.40
2017-09-25T16:08:36.619Z,19.30
2017-09-25T16:11:02.853Z,19.30
2017-09-25T16:13:29.052Z,19.30
2017-09-25T16:15:55.296Z,19.30
2017-09-25T16:18:21.517Z,19.30
2017-09-25T16:20:49.264Z,19.30
2017-09-25T16:23:16.500Z,19.20
2017-09-25T16:25:44.324Z,19.20
2017-09-25T16:28:11.099Z,19.10
2017-09-25T16:30:38.051Z,19.10
2017-09-25T16:33:04.263Z,19.10
2017-09-25T16:35:31.407Z,18.90
2017-09-25T16:37:58.405Z,18.90
2017-09-25T16:40:24.625Z,18.90
2017-09-25T16:42:54.512Z,18.80
2017-09-25T16:45:20.713Z,18.70
2017-09-25T16:47:46.937Z,18.70
2017-09-25T16:50:13.144Z,18.70
2017-09-25T16:52:40.130Z,18.60
2017-09-25T16:55:07.246Z,18.60
2017-09-25T16:57:34.401Z,18.50
2017-09-25T17:00:01.592Z,18.40
2017-09-25T17:02:28.838Z,18.40
2017-09-25T17:04:56.432Z,18.40
2017-09-25T17:07:22.740Z,18.30
2017-09-25T17:09:50.486Z,18.30
2017-09-25T17:12:16.714Z,18.30
2017-09-25T17:17:11.277Z,18.30
2017-09-25T17:19:37.696Z,18.20
2017-09-25T17:22:04.157Z,18.10
2017-09-25T17:24:30.538Z,18.10
2017-09-25T17:26:56.973Z,18.00
2017-09-25T17:29:23.504Z,18.00
2017-09-25T17:31:50.746Z,17.80
2017-09-25T17:34:18.218Z,17.70
2017-09-25T17:36:44.726Z,17.70
2017-09-25T17:39:11.306Z,17.60
2017-09-25T17:41:37.848Z,17.40
2017-09-25T17:44:04.286Z,17.30
2017-09-25T17:56:15.543Z,17.00
2017-09-25T17:58:44.355Z,17.00
2017-09-25T18:01:11.116Z,16.90
2017-09-25T18:03:38.002Z,16.80
2017-09-25T18:06:04.920Z,16.80
2017-09-25T18:08:33.196Z,16.80
2017-09-25T18:11:01.275Z,16.70
2017-09-25T18:13:28.214Z,16.60
2017-09-25T18:15:55.396Z,16.60
2017-09-25T18:18:21.752Z,16.60
2017-09-25T18:20:48.748Z,16.60
2017-09-25T18:23:15.777Z,16.50
2017-09-25T18:25:45.810Z,16.50
2017-09-25T18:28:12.904Z,16.50
2017-09-25T18:30:39.167Z,16.40
2017-09-25T18:33:05.387Z,16.40
2017-09-25T18:35:31.621Z,16.40
2017-09-25T18:37:57.846Z,16.20
2017-09-25T18:40:24.085Z,16.20
2017-09-25T18:42:50.327Z,16.10
2017-09-25T18:45:16.577Z,16.20
2017-09-25T18:47:43.525Z,16.10
2017-09-25T18:50:10.570Z,16.10
2017-09-25T18:52:38.532Z,16.00
2017-09-25T18:55:06.293Z,16.00
2017-09-25T18:57:32.488Z,16.00
2017-09-25T18:59:59.065Z,15.90
2017-09-25T19:02:26.056Z,15.80
2017-09-25T19:04:52.316Z,15.80
2017-09-25T19:07:18.635Z,15.80
2017-09-25T19:09:44.865Z,15.70
2017-09-25T19:12:12.224Z,15.70
2017-09-25T19:14:38.535Z,15.80
2017-09-25T19:17:04.783Z,15.70
2017-09-25T19:19:31.052Z,15.70
2017-09-25T19:21:57.335Z,15.60
2017-09-25T19:24:23.596Z,15.50
2017-09-25T19:26:52.891Z,15.50
2017-09-25T19:29:19.880Z,15.40
2017-09-25T19:31:46.087Z,15.40
2017-09-25T19:34:13.105Z,15.40
2017-09-25T19:36:39.378Z,15.30
2017-09-25T19:39:06.449Z,15.30
2017-09-25T19:41:32.744Z,15.30
2017-09-25T19:43:59.720Z,15.30
2017-09-25T19:46:25.989Z,15.20
2017-09-25T19:48:56.914Z,15.30
2017-09-25T19:51:24.035Z,15.30
2017-09-25T19:53:54.534Z,15.30
2017-09-25T19:56:25.278Z,15.20
2017-09-25T19:58:52.396Z,15.10
2017-09-25T20:01:21.917Z,15.10
2017-09-25T20:03:48.348Z,15.20
2017-09-25T20:06:15.334Z,15.20
2017-09-25T20:08:42.291Z,15.20
2017-09-25T20:11:09.803Z,15.10
2017-09-25T20:13:37.367Z,15.10
2017-09-25T20:19:09.618Z,15.10
2017-09-25T20:21:36.577Z,15.20
2017-09-25T20:24:02.767Z,15.10
2017-09-25T20:26:29.764Z,15.10
2017-09-25T20:28:56.924Z,15.00
2017-09-25T20:31:23.227Z,15.00
2017-09-25T20:33:49.468Z,15.00
2017-09-25T20:36:18.134Z,14.90
2017-09-25T20:38:46.036Z,14.80
2017-09-25T20:41:14.025Z,14.70
2017-09-25T20:43:54.492Z,14.80
2017-09-25T20:46:21.533Z,14.70
2017-09-25T20:48:48.907Z,14.80
2017-09-25T20:51:16.694Z,14.70
2017-09-25T20:53:45.178Z,14.70
2017-09-25T20:56:11.387Z,14.70
2017-09-25T20:58:39.262Z,14.70
2017-09-25T21:01:05.505Z,14.60
2017-09-25T21:03:31.720Z,14.60
2017-09-25T21:05:57.950Z,14.50
2017-09-25T21:08:24.279Z,14.50
2017-09-25T21:10:52.524Z,14.50
2017-09-25T21:13:21.652Z,14.50
2017-09-25T21:15:48.089Z,14.50
2017-09-25T21:18:15.292Z,14.50
2017-09-25T21:20:42.474Z,14.50
2017-09-25T21:23:09.412Z,14.50
2017-09-25T21:25:36.983Z,14.60
2017-09-25T21:28:03.216Z,14.60
2017-09-25T21:30:29.615Z,14.60
2017-09-25T21:32:56.639Z,14.60
2017-09-25T21:35:22.842Z,14.50
2017-09-25T21:37:49.048Z,14.60
2017-09-25T21:40:18.600Z,14.50
2017-09-25T21:42:44.909Z,14.40
2017-09-25T21:45:11.293Z,14.40
2017-09-25T21:47:37.810Z,14.30
2017-09-25T21:50:04.096Z,14.30
2017-09-25T21:52:32.377Z,14.10
2017-09-25T21:54:59.150Z,14.20
2017-09-25T21:57:26.237Z,14.20
2017-09-25T21:59:52.836Z,14.30
2017-09-25T22:02:19.203Z,14.20
2017-09-25T22:04:47.162Z,14.20
2017-09-25T22:07:14.048Z,14.20
2017-09-25T22:09:40.410Z,14.10
2017-09-25T22:12:07.617Z,14.20
2017-09-25T22:14:33.899Z,14.10
2017-09-25T22:17:00.136Z,14.00
2017-09-25T22:19:26.315Z,14.00
2017-09-25T22:21:54.363Z,14.00
2017-09-25T22:24:21.562Z,14.00
2017-09-25T22:26:49.867Z,14.00
2017-09-25T22:29:16.065Z,14.00
2017-09-25T22:31:42.397Z,14.10
2017-09-25T22:34:08.675Z,14.00
2017-09-25T22:36:39.611Z,14.00
2017-09-25T22:39:06.699Z,13.90
2017-09-25T22:41:33.663Z,14.00
2017-09-25T22:44:13.774Z,14.10
2017-09-25T22:46:43.899Z,14.10
2017-09-25T22:49:10.875Z,14.20
2017-09-25T22:51:37.462Z,14.30
2017-09-25T22:54:03.662Z,14.30
2017-09-25T22:56:29.894Z,14.30
2017-09-25T22:58:56.878Z,14.30
2017-09-25T23:01:24.648Z,14.30
2017-09-25T23:06:42.146Z,14.20
2017-09-25T23:09:08.825Z,14.20
2017-09-25T23:11:35.854Z,14.20
2017-09-25T23:14:02.062Z,14.20
2017-09-25T23:16:28.236Z,14.10
2017-09-25T23:18:55.227Z,14.20
2017-09-25T23:21:23.113Z,14.20
2017-09-25T23:23:49.297Z,14.20
2017-09-25T23:26:16.488Z,14.20
2017-09-25T23:31:11.637Z,14.20
2017-09-25T23:33:37.859Z,14.10
2017-09-25T23:36:04.102Z,14.10
2017-09-25T23:38:30.306Z,14.00
2017-09-25T23:40:57.223Z,13.90
2017-09-25T23:43:23.471Z,13.80
2017-09-25T23:45:49.762Z,13.80
2017-09-25T23:48:16.722Z,13.80
2017-09-25T23:50:42.953Z,13.80
2017-09-25T23:53:09.140Z,13.80
2017-09-25T23:55:35.354Z,13.80
2017-09-25T23:58:01.598Z,13.80
